Hampton, Canada
Current Conditions -  °F | °C
As of 7:00 AM on Saturday 25 Oct 2014 (Local Time) from CYSJ Reporting Station
Overcast Overcast  
Wind Chill: 36°   Ceiling: 600
Heat Index: 43°   Visibility: 10mi
Dew Point: 41°   Wind: 13mph
Humidity: 93%   Direction: 340°NNW
Pressure: 29.54"   Gusts: NA
Location:  45.53°N, 65.83°W
Report Text: CYSJ 251000Z 34011KT 10SM OVC006 06/05 A2954 RMK SF8 SLP006
Loading
Personal Weather Stations






























Interactive Weather Map
Tropical Storm Tracking
New forecast layout! Learn more

10-Day Weather Forecast

Advertisements
Track Severe Weather on mobile